createdAt,value
2022-10-19T00:00:03.886Z,22.7
2022-10-19T00:05:01.465Z,22.7
2022-10-19T00:10:01.221Z,22.7
2022-10-19T00:15:00.104Z,22.7
2022-10-19T00:20:01.535Z,22.7
2022-10-19T00:25:00.098Z,22.6
2022-10-19T00:30:01.983Z,22.5
2022-10-19T00:35:00.100Z,22.4
2022-10-19T00:40:01.039Z,22.3
2022-10-19T00:45:01.251Z,22.2
2022-10-19T00:50:02.689Z,22.2
2022-10-19T00:55:00.102Z,22.2
2022-10-19T01:00:01.032Z,22.2
2022-10-19T01:05:00.094Z,22.2
2022-10-19T01:10:00.124Z,22.3
2022-10-19T01:15:01.248Z,22.2
2022-10-19T01:20:01.336Z,22.3
2022-10-19T01:25:00.171Z,22.3
2022-10-19T01:30:00.981Z,22.3
2022-10-19T01:35:00.113Z,22.3
2022-10-19T01:40:01.050Z,22.4
2022-10-19T01:45:00.100Z,22.4
2022-10-19T01:50:00.129Z,22.4
2022-10-19T01:55:00.091Z,22.5
2022-10-19T02:00:01.275Z,22.5
2022-10-19T02:05:00.974Z,22.5
2022-10-19T02:10:00.189Z,22.4
2022-10-19T02:15:00.969Z,22.5
2022-10-19T02:20:01.219Z,22.5
2022-10-19T02:25:00.087Z,22.5
2022-10-19T02:30:01.031Z,22.5
2022-10-19T02:35:00.126Z,22.5
2022-10-19T02:40:00.149Z,22.5
2022-10-19T02:45:01.541Z,22.5
2022-10-19T02:50:00.786Z,22.5
2022-10-19T02:55:01.190Z,22.5
2022-10-19T03:00:01.035Z,22.5
2022-10-19T03:05:00.994Z,22.5
2022-10-19T03:10:01.035Z,22.5
2022-10-19T03:15:01.866Z,22.5
2022-10-19T03:20:00.144Z,22.5
2022-10-19T03:25:00.093Z,22.6
2022-10-19T03:30:00.158Z,22.5
2022-10-19T03:35:00.999Z,22.6
2022-10-19T03:40:01.276Z,22.6
2022-10-19T03:45:00.117Z,22.6
2022-10-19T03:50:00.991Z,22.5
2022-10-19T03:55:02.440Z,22.6
2022-10-19T04:00:01.047Z,22.5
2022-10-19T04:05:01.478Z,22.5
2022-10-19T04:10:00.987Z,22.6
2022-10-19T04:15:00.939Z,22.6
2022-10-19T04:20:00.185Z,22.6
2022-10-19T04:25:01.167Z,22.6
2022-10-19T04:30:00.124Z,22.6
2022-10-19T04:35:00.096Z,22.6
2022-10-19T04:40:00.163Z,22.6
2022-10-19T04:45:00.115Z,22.6
2022-10-19T04:50:01.272Z,22.6
2022-10-19T04:55:00.121Z,22.6
2022-10-19T05:00:01.072Z,22.6
2022-10-19T05:05:00.971Z,22.6
2022-10-19T05:10:00.125Z,22.6
2022-10-19T05:15:01.000Z,22.6
2022-10-19T05:20:00.145Z,22.6
2022-10-19T05:25:01.478Z,22.6
2022-10-19T05:30:01.060Z,22.6
2022-10-19T05:35:00.129Z,22.6
2022-10-19T05:40:00.130Z,22.6
2022-10-19T05:45:01.019Z,22.6
2022-10-19T05:50:01.082Z,22.6
2022-10-19T05:55:01.009Z,22.6
2022-10-19T06:00:01.209Z,22.6
2022-10-19T06:05:01.436Z,22.6
2022-10-19T06:10:01.213Z,22.6
2022-10-19T06:15:00.128Z,22.6
2022-10-19T06:20:01.106Z,22.6
2022-10-19T06:25:00.093Z,22.6
2022-10-19T06:30:00.154Z,22.5
2022-10-19T06:35:00.099Z,22.6
2022-10-19T06:40:03.522Z,22.6
2022-10-19T06:45:01.459Z,22.6
2022-10-19T06:50:01.046Z,22.6
2022-10-19T06:55:00.118Z,22.6
2022-10-19T07:00:01.048Z,22.6
2022-10-19T07:05:04.484Z,22.5
2022-10-19T07:10:00.137Z,22.6
2022-10-19T07:15:01.013Z,22.6
2022-10-19T07:20:00.153Z,22.6
2022-10-19T07:25:00.949Z,22.5
2022-10-19T07:30:00.099Z,22.5
2022-10-19T07:35:00.100Z,22.6
2022-10-19T07:40:01.040Z,22.5
2022-10-19T07:45:00.090Z,22.5
2022-10-19T07:50:00.132Z,22.5
2022-10-19T07:55:00.927Z,22.5
2022-10-19T08:00:01.151Z,22.5
2022-10-19T08:05:04.100Z,22.5
2022-10-19T08:10:02.103Z,22.5
2022-10-19T08:15:00.109Z,22.6
2022-10-19T08:20:01.051Z,22.5
2022-10-19T08:25:01.392Z,22.5
2022-10-19T08:30:00.144Z,22.5
2022-10-19T08:35:00.084Z,22.5
2022-10-19T08:40:01.027Z,22.5
2022-10-19T08:45:01.211Z,22.6
2022-10-19T08:50:00.945Z,22.5
2022-10-19T08:55:01.024Z,22.5
2022-10-19T09:00:01.495Z,22.5
2022-10-19T09:05:00.963Z,22.5
2022-10-19T09:10:01.007Z,22.5
2022-10-19T09:15:02.916Z,22.5
2022-10-19T09:20:00.985Z,22.5
2022-10-19T09:25:00.107Z,22.5
2022-10-19T09:30:01.012Z,22.6
2022-10-19T09:35:00.096Z,22.6
2022-10-19T09:40:01.189Z,22.6
2022-10-19T09:45:00.992Z,22.6
2022-10-19T09:50:00.164Z,22.6
2022-10-19T09:55:01.429Z,22.5
2022-10-19T10:00:00.178Z,22.6
2022-10-19T10:05:00.982Z,22.6
2022-10-19T10:10:01.263Z,22.5
2022-10-19T10:15:00.100Z,22.6
2022-10-19T10:20:01.463Z,22.6
2022-10-19T10:25:00.958Z,22.6
2022-10-19T10:30:01.274Z,22.6
2022-10-19T10:35:01.903Z,22.6
2022-10-19T10:40:03.430Z,22.6
2022-10-19T10:45:01.169Z,22.6
2022-10-19T10:50:00.153Z,22.6
2022-10-19T10:55:01.065Z,22.6
2022-10-19T11:00:00.998Z,22.6
2022-10-19T11:05:01.022Z,22.6
2022-10-19T11:10:01.042Z,22.6
2022-10-19T11:15:00.113Z,22.6
2022-10-19T11:20:00.171Z,22.6
2022-10-19T11:25:00.127Z,22.6
2022-10-19T11:30:00.133Z,22.6
2022-10-19T11:35:00.084Z,22.6
2022-10-19T11:40:01.627Z,22.6
2022-10-19T11:45:01.214Z,22.6
2022-10-19T11:50:01.025Z,22.6
2022-10-19T11:55:01.262Z,22.7
2022-10-19T12:00:08.043Z,22.7
2022-10-19T12:05:00.103Z,22.7
2022-10-19T12:10:00.123Z,22.6
2022-10-19T12:15:01.264Z,22.6
2022-10-19T12:20:00.150Z,22.7
2022-10-19T12:25:00.091Z,22.7
2022-10-19T12:30:01.471Z,22.7
2022-10-19T12:35:00.119Z,22.7
2022-10-19T12:40:01.099Z,22.7
2022-10-19T12:45:01.226Z,22.7
2022-10-19T12:50:01.099Z,22.7
2022-10-19T12:55:00.087Z,22.7
2022-10-19T13:00:01.446Z,22.7
2022-10-19T13:05:01.283Z,22.7
2022-10-19T13:10:01.465Z,22.7
2022-10-19T13:15:00.126Z,22.8
2022-10-19T13:20:01.423Z,22.8
2022-10-19T13:25:03.503Z,22.8
2022-10-19T13:30:01.002Z,22.8
2022-10-19T13:35:00.956Z,22.8
2022-10-19T13:40:00.170Z,22.8
2022-10-19T13:45:00.100Z,22.8
2022-10-19T13:50:01.240Z,22.9
2022-10-19T13:55:00.093Z,22.9
2022-10-19T14:00:00.987Z,22.9
2022-10-19T14:05:00.085Z,22.9
2022-10-19T14:10:01.010Z,22.9
2022-10-19T14:15:00.110Z,22.9
2022-10-19T14:20:00.151Z,23.0
2022-10-19T14:25:01.493Z,23.0
2022-10-19T14:30:01.021Z,23.0
2022-10-19T14:35:00.201Z,23.0
2022-10-19T14:40:01.105Z,23.0
2022-10-19T14:45:00.970Z,23.0
2022-10-19T14:50:00.139Z,23.1
2022-10-19T14:55:01.021Z,23.1
2022-10-19T15:00:00.154Z,23.1
2022-10-19T15:05:00.996Z,23.1
2022-10-19T15:10:01.491Z,23.2
2022-10-19T15:15:01.489Z,23.2
2022-10-19T15:20:01.294Z,23.2
2022-10-19T15:25:01.880Z,23.2
2022-10-19T15:30:00.219Z,23.3
2022-10-19T15:35:01.149Z,23.3
2022-10-19T15:40:01.550Z,23.3
2022-10-19T15:45:01.187Z,23.3
2022-10-19T15:50:01.486Z,23.3
2022-10-19T15:55:01.435Z,23.3
2022-10-19T16:00:01.208Z,23.3
2022-10-19T16:05:00.192Z,23.3
2022-10-19T16:10:01.532Z,23.3
2022-10-19T16:15:00.094Z,23.3
2022-10-19T16:25:00.976Z,23.3
2022-10-19T16:30:00.138Z,23.3
2022-10-19T16:35:00.112Z,23.3
2022-10-19T16:40:01.024Z,23.3
2022-10-19T16:45:01.394Z,23.3
2022-10-19T16:50:00.995Z,23.3
2022-10-19T16:55:00.132Z,23.3
2022-10-19T17:00:01.451Z,23.3
2022-10-19T17:05:00.133Z,23.3
2022-10-19T17:10:01.266Z,23.3
2022-10-19T17:15:23.784Z,23.3
2022-10-19T17:20:00.162Z,23.2
2022-10-19T17:25:01.038Z,23.2
2022-10-19T17:30:01.263Z,23.2
2022-10-19T17:35:02.636Z,23.2
2022-10-19T17:40:01.487Z,23.2
2022-10-19T17:45:02.076Z,23.2
2022-10-19T17:50:01.961Z,23.2
2022-10-19T17:55:11.515Z,23.2
2022-10-19T18:00:02.410Z,23.2
2022-10-19T18:05:01.249Z,23.2
2022-10-19T18:10:01.422Z,23.1
2022-10-19T18:15:03.490Z,23.2
2022-10-19T18:20:03.710Z,23.2
2022-10-19T18:25:02.467Z,23.1
2022-10-19T18:30:00.134Z,23.1
2022-10-19T18:35:00.188Z,23.1
2022-10-19T18:40:02.616Z,23.2
2022-10-19T18:45:00.100Z,23.2
2022-10-19T18:50:00.145Z,23.2
2022-10-19T18:55:00.142Z,23.1
2022-10-19T19:00:01.723Z,23.1
2022-10-19T19:05:01.504Z,23.1
2022-10-19T19:10:00.147Z,23.1
2022-10-19T19:15:00.154Z,23.1
2022-10-19T19:20:01.703Z,23.1
2022-10-19T19:25:01.268Z,23.1
2022-10-19T19:30:01.426Z,23.1
2022-10-19T19:35:01.327Z,23.1
2022-10-19T19:40:01.186Z,23.1
2022-10-19T19:45:00.112Z,23.0
2022-10-19T19:50:01.043Z,23.1
2022-10-19T20:00:03.122Z,23.1
2022-10-19T20:05:01.511Z,23.0
2022-10-19T20:10:00.129Z,23.0
2022-10-19T20:15:01.347Z,23.0
2022-10-19T20:20:01.474Z,23.0
2022-10-19T20:25:00.103Z,23.0
2022-10-19T20:30:01.274Z,23.0
2022-10-19T20:35:01.018Z,23.0
2022-10-19T20:40:01.492Z,23.0
2022-10-19T20:45:01.513Z,23.0
2022-10-19T20:55:00.994Z,23.1
2022-10-19T21:00:01.040Z,23.1
2022-10-19T21:05:01.750Z,23.0
2022-10-19T21:10:00.990Z,23.1
2022-10-19T21:15:00.143Z,23.1
2022-10-19T21:20:00.128Z,23.1
2022-10-19T21:25:00.160Z,23.1
2022-10-19T21:30:02.033Z,23.1
2022-10-19T21:35:01.246Z,23.1
2022-10-19T21:40:00.989Z,23.1
2022-10-19T21:45:11.811Z,23.1
2022-10-19T21:50:00.134Z,23.1
2022-10-19T21:55:00.995Z,23.1
2022-10-19T22:00:02.031Z,23.1
2022-10-19T22:05:01.237Z,23.1
2022-10-19T22:10:01.207Z,23.1
2022-10-19T22:15:00.115Z,23.1
2022-10-19T22:20:01.253Z,23.1
2022-10-19T22:25:00.951Z,23.1
2022-10-19T22:30:00.994Z,23.1
2022-10-19T22:35:01.253Z,23.1
2022-10-19T22:40:00.140Z,23.1
2022-10-19T22:45:01.826Z,23.1
2022-10-19T22:50:00.110Z,23.1
2022-10-19T22:55:00.133Z,23.1
2022-10-19T23:00:01.567Z,23.1
2022-10-19T23:05:00.129Z,23.1
2022-10-19T23:10:01.028Z,23.1
2022-10-19T23:15:01.257Z,23.1
2022-10-19T23:20:01.201Z,23.1
2022-10-19T23:25:01.212Z,23.1
2022-10-19T23:30:00.125Z,23.1
2022-10-19T23:35:00.130Z,23.1
2022-10-19T23:40:01.196Z,23.1
2022-10-19T23:45:00.101Z,23.1
2022-10-19T23:50:01.468Z,23.1
2022-10-19T23:55:01.271Z,23.1
